Vitoria-Gasteiz, Spain
Current Conditions -  °F | °C
As of 3:00 PM on Thursday 23 Oct 2014 (Local Time) from LEVT Reporting Station
Clear Clear  
Wind Chill: 70°   Ceiling: Unl
Heat Index: 70°   Visibility: 6mi
Dew Point: 37°   Wind: 0mph
Humidity: 31%   Direction: NA
Pressure: 30.24"   Gusts: NA
Location:  42.85°N, 2.67°W
Report Text: LEVT 231300Z 00000KT CAVOK 21/03 Q1024
Loading
Personal Weather Stations






























Interactive Weather Map
Tropical Storm Tracking
New forecast layout! Learn more

10-Day Weather Forecast

Advertisements
Track Severe Weather on mobile